Time;durP1;ratioP1;P1;durP2;ratioP2;P2;SDS_P1;SDS_P2;PMS_P1;PMS_P2;Temp;Humidity;BMP_temperature;BMP_pressure;BME280_temperature;BME280_humidity;BME280_pressure;Samples;Min_cycle;Max_cycle;Signal;HPM_P1;HPM_P2
2024/03/21 00:01:19;;;;;;;18.30;13.70;;;;;;;3.95;100.00;100712.55;86970;266;138549;-74
2024/03/21 00:03:20;;;;;;;22.30;15.40;;;;;;;3.95;100.00;100713.06;87229;270;22573;-73
2024/03/21 00:05:21;;;;;;;22.60;14.60;;;;;;;3.95;100.00;100713.79;87080;271;138150;-74
2024/03/21 00:07:21;;;;;;;20.70;14.70;;;;;;;3.93;100.00;100711.15;87000;268;24001;-74
2024/03/21 00:09:22;;;;;;;18.80;14.50;;;;;;;3.90;100.00;100711.23;87114;272;137352;-73
2024/03/21 00:11:23;;;;;;;20.80;15.20;;;;;;;3.88;100.00;100713.15;88322;269;22586;-75
2024/03/21 00:13:24;;;;;;;17.40;14.50;;;;;;;3.87;100.00;100712.66;88489;272;138247;-73
2024/03/21 00:15:24;;;;;;;20.20;15.90;;;;;;;3.87;100.00;100714.97;88927;275;22727;-74
2024/03/21 00:17:26;;;;;;;25.00;14.50;;;;;;;3.86;100.00;100711.17;88639;275;138278;-76
2024/03/21 00:19:27;;;;;;;22.40;14.80;;;;;;;3.85;100.00;100713.21;87301;268;25187;-75
2024/03/21 00:21:27;;;;;;;23.60;14.60;;;;;;;3.83;100.00;100712.18;87171;279;138175;-74
2024/03/21 00:23:28;;;;;;;23.60;18.30;;;;;;;3.85;100.00;100711.16;87752;271;23455;-74
2024/03/21 00:25:29;;;;;;;27.90;22.00;;;;;;;3.82;100.00;100714.20;87259;278;136899;-76
2024/03/21 00:27:31;;;;;;;28.60;21.40;;;;;;;3.78;100.00;100711.59;87272;270;25185;-74
2024/03/21 00:29:33;;;;;;;29.00;21.20;;;;;;;3.71;100.00;100707.94;86992;273;136994;-73
2024/03/21 00:31:34;;;;;;;26.40;21.40;;;;;;;3.65;100.00;100705.10;87301;270;22685;-76
2024/03/21 00:33:35;;;;;;;27.90;19.50;;;;;;;3.63;100.00;100707.46;87146;265;138878;-74
2024/03/21 00:35:36;;;;;;;19.40;16.70;;;;;;;3.61;100.00;100707.10;87187;270;22857;-72
2024/03/21 00:37:37;;;;;;;20.40;17.90;;;;;;;3.58;100.00;100708.01;87088;271;137300;-73
2024/03/21 00:39:41;;;;;;;26.90;21.30;;;;;;;3.56;100.00;100708.75;87135;274;22561;-73
2024/03/21 00:41:42;;;;;;;26.80;22.00;;;;;;;3.52;100.00;100712.59;87035;274;137783;-72
2024/03/21 00:43:42;;;;;;;29.70;24.20;;;;;;;3.49;100.00;100711.58;87184;270;22592;-73
2024/03/21 00:45:44;;;;;;;25.70;21.70;;;;;;;3.45;100.00;100715.45;87004;269;136651;-72
2024/03/21 00:47:45;;;;;;;28.30;21.90;;;;;;;3.42;100.00;100712.77;87060;271;23758;-73
2024/03/21 00:49:45;;;;;;;31.60;21.30;;;;;;;3.38;100.00;100712.89;86915;280;136889;-73
2024/03/21 00:51:46;;;;;;;26.20;20.10;;;;;;;3.34;100.00;100710.98;86899;279;22569;-74
2024/03/21 00:53:47;;;;;;;25.70;20.50;;;;;;;3.31;100.00;100711.40;86920;279;136881;-76
2024/03/21 00:55:47;;;;;;;29.50;24.60;;;;;;;3.29;100.00;100709.66;86454;277;956359;-73
2024/03/21 00:57:48;;;;;;;29.00;24.90;;;;;;;3.27;100.00;100709.83;87083;271;136992;-73
2024/03/21 00:59:49;;;;;;;32.00;24.90;;;;;;;3.22;100.00;100710.27;87209;267;22571;-73
2024/03/21 01:01:50;;;;;;;31.50;24.00;;;;;;;3.17;100.00;100709.98;86882;272;137072;-73
2024/03/21 01:03:51;;;;;;;32.60;25.90;;;;;;;3.13;100.00;100708.40;87008;267;25216;-73
2024/03/21 01:05:55;;;;;;;32.90;25.10;;;;;;;3.08;100.00;100707.55;86921;267;136911;-73
2024/03/21 01:07:56;;;;;;;29.90;24.90;;;;;;;3.03;100.00;100708.73;87035;267;22573;-73
2024/03/21 01:09:56;;;;;;;32.90;27.00;;;;;;;3.00;100.00;100708.66;87549;268;136945;-74
2024/03/21 01:11:58;;;;;;;31.40;25.10;;;;;;;2.96;100.00;100705.77;86983;280;22529;-73
2024/03/21 01:13:59;;;;;;;34.00;25.50;;;;;;;2.92;100.00;100707.15;86912;269;137574;-74
2024/03/21 01:16:00;;;;;;;37.30;25.70;;;;;;;2.88;100.00;100706.77;87004;272;22558;-74
2024/03/21 01:18:03;;;;;;;30.00;23.20;;;;;;;2.85;100.00;100703.53;87070;271;138462;-76
2024/03/21 01:20:06;;;;;;;33.20;26.90;;;;;;;2.82;100.00;100700.46;87000;276;137622;-72
2024/03/21 01:22:07;;;;;;;32.20;25.20;;;;;;;2.80;100.00;100702.23;87200;266;25201;-75
2024/03/21 01:24:07;;;;;;;31.20;23.90;;;;;;;2.78;100.00;100700.16;86955;277;137115;-75
2024/03/21 01:26:08;;;;;;;34.40;26.00;;;;;;;2.76;100.00;100700.09;86878;271;23743;-74
2024/03/21 01:28:10;;;;;;;34.20;24.80;;;;;;;2.75;100.00;100700.17;87111;270;137093;-73
2024/03/21 01:30:11;;;;;;;36.70;25.00;;;;;;;2.72;100.00;100699.49;87029;265;22576;-73
2024/03/21 01:32:12;;;;;;;35.50;25.40;;;;;;;2.69;100.00;100694.70;86708;279;136923;-74
2024/03/21 01:34:12;;;;;;;32.40;24.60;;;;;;;2.69;100.00;100697.72;86921;276;22547;-74
2024/03/21 01:36:13;;;;;;;28.70;24.00;;;;;;;2.68;100.00;100697.41;86842;276;137286;-74
2024/03/21 01:38:14;;;;;;;32.10;25.90;;;;;;;2.67;100.00;100697.53;86935;271;24286;-73
2024/03/21 01:40:15;;;;;;;29.20;24.90;;;;;;;2.66;100.00;100695.33;86812;273;137218;-73
2024/03/21 01:42:19;;;;;;;28.20;23.50;;;;;;;2.62;100.00;100696.48;87147;269;24153;-74
2024/03/21 01:44:19;;;;;;;33.00;24.80;;;;;;;2.59;100.00;100697.65;87092;277;138590;-75
2024/03/21 01:46:21;;;;;;;29.00;24.40;;;;;;;2.53;100.00;100699.36;87142;270;22677;-73
2024/03/21 01:48:22;;;;;;;37.10;24.40;;;;;;;2.50;100.00;100696.30;87425;270;137213;-73
2024/03/21 01:50:23;;;;;;;28.20;23.10;;;;;;;2.46;100.00;100697.11;86988;271;22582;-74
2024/03/21 01:52:26;;;;;;;29.40;24.40;;;;;;;2.44;100.00;100696.42;86859;268;137226;-74
2024/03/21 01:54:28;;;;;;;30.60;24.80;;;;;;;2.42;100.00;100698.71;87087;271;23777;-75
2024/03/21 01:56:29;;;;;;;34.40;23.60;;;;;;;2.40;100.00;100701.28;86878;271;137230;-73
2024/03/21 01:58:30;;;;;;;33.00;23.30;;;;;;;2.40;100.00;100700.92;87144;270;22578;-74
2024/03/21 02:00:30;;;;;;;26.50;23.50;;;;;;;2.41;100.00;100700.21;86945;270;136756;-74
2024/03/21 02:02:31;;;;;;;31.20;23.40;;;;;;;2.42;100.00;100703.63;86887;273;22589;-74
2024/03/21 02:04:33;;;;;;;34.30;24.80;;;;;;;2.44;100.00;100701.33;86810;272;136908;-73
2024/03/21 02:06:35;;;;;;;33.20;25.40;;;;;;;2.47;100.00;100703.05;86967;276;22559;-73
2024/03/21 02:08:35;;;;;;;30.90;24.10;;;;;;;2.49;100.00;100703.20;86936;279;136943;-74
2024/03/21 02:10:36;;;;;;;34.50;23.90;;;;;;;2.51;100.00;100701.59;87185;266;25968;-75
2024/03/21 02:12:48;;;;;;;30.00;22.70;;;;;;;2.53;100.00;100704.09;87121;278;137546;-73
2024/03/21 02:14:50;;;;;;;30.10;24.80;;;;;;;2.52;100.00;100704.58;87212;268;26213;-74
2024/03/21 02:16:51;;;;;;;23.80;20.80;;;;;;;2.51;100.00;100706.69;86945;270;136887;-74
2024/03/21 02:18:53;;;;;;;30.90;22.70;;;;;;;2.52;100.00;100707.30;87109;279;22645;-74
2024/03/21 02:20:54;;;;;;;26.40;19.80;;;;;;;2.53;100.00;100705.64;86946;269;137496;-75
2024/03/21 02:22:55;;;;;;;27.40;21.90;;;;;;;2.56;100.00;100703.34;87079;275;25221;-75
2024/03/21 02:24:56;;;;;;;21.60;19.30;;;;;;;2.59;100.00;100704.65;86974;270;137000;-75
2024/03/21 02:26:56;;;;;;;33.20;24.30;;;;;;;2.63;100.00;100707.87;87042;279;25313;-74
2024/03/21 02:28:57;;;;;;;34.40;24.50;;;;;;;2.65;100.00;100705.77;87005;271;137115;-73
2024/03/21 02:30:58;;;;;;;35.10;26.00;;;;;;;2.65;100.00;100705.25;87036;268;22630;-74
2024/03/21 02:32:59;;;;;;;31.90;24.50;;;;;;;2.64;100.00;100705.16;86872;280;136963;-75
2024/03/21 02:35:01;;;;;;;32.80;24.20;;;;;;;2.63;100.00;100704.33;87062;278;25288;-75
2024/03/21 02:37:02;;;;;;;28.70;21.70;;;;;;;2.63;100.00;100704.86;87330;274;137027;-76
2024/03/21 02:39:03;;;;;;;25.90;19.20;;;;;;;2.64;100.00;100703.39;87090;267;24024;-75
2024/03/21 02:41:04;;;;;;;26.20;19.40;;;;;;;2.63;100.00;100704.14;87103;270;136699;-74
2024/03/21 02:43:04;;;;;;;28.10;22.40;;;;;;;2.61;100.00;100704.66;87114;270;22734;-74
2024/03/21 02:45:06;;;;;;;29.30;21.80;;;;;;;2.58;100.00;100706.48;86944;279;137410;-74
2024/03/21 02:47:07;;;;;;;34.20;23.30;;;;;;;2.54;100.00;100705.60;87080;275;23997;-73
2024/03/21 02:49:07;;;;;;;32.80;21.90;;;;;;;2.51;100.00;100705.10;87053;270;136832;-74
2024/03/21 02:51:08;;;;;;;26.50;19.10;;;;;;;2.49;100.00;100708.64;87193;267;25206;-75
2024/03/21 02:53:09;;;;;;;32.00;21.30;;;;;;;2.46;100.00;100710.16;86985;262;136699;-74
2024/03/21 02:55:10;;;;;;;28.50;20.50;;;;;;;2.41;100.00;100711.56;87173;274;23724;-73
2024/03/21 02:57:11;;;;;;;27.70;19.80;;;;;;;2.36;100.00;100714.85;86979;270;138458;-74
2024/03/21 02:59:12;;;;;;;30.20;21.10;;;;;;;2.33;100.00;100713.83;87014;272;25335;-74
2024/03/21 03:01:12;;;;;;;28.50;19.50;;;;;;;2.30;100.00;100714.02;86897;268;137597;-74
2024/03/21 03:03:13;;;;;;;28.10;21.50;;;;;;;2.27;100.00;100713.93;87125;270;24011;-75
2024/03/21 03:05:15;;;;;;;32.30;23.00;;;;;;;2.25;100.00;100715.17;86824;265;137254;-75
2024/03/21 03:07:15;;;;;;;30.80;20.70;;;;;;;2.23;100.00;100719.02;87031;272;22885;-75
2024/03/21 03:09:16;;;;;;;29.40;21.40;;;;;;;2.22;100.00;100723.33;86891;279;137028;-76
2024/03/21 03:11:17;;;;;;;31.90;20.20;;;;;;;2.21;100.00;100723.19;87034;271;25250;-74
2024/03/21 03:13:18;;;;;;;26.30;20.40;;;;;;;2.21;100.00;100725.29;87061;278;136628;-76
2024/03/21 03:15:18;;;;;;;25.30;19.10;;;;;;;2.24;100.00;100725.27;87068;268;22563;-76
2024/03/21 03:17:19;;;;;;;30.50;21.10;;;;;;;2.28;100.00;100727.04;86992;271;138387;-76
2024/03/21 03:19:20;;;;;;;35.70;17.90;;;;;;;2.32;100.00;100728.08;87141;270;24027;-75
2024/03/21 03:21:20;;;;;;;19.60;15.70;;;;;;;2.34;100.00;100729.89;86852;279;136681;-74
2024/03/21 03:23:21;;;;;;;23.60;16.00;;;;;;;2.30;100.00;100731.10;86972;280;22846;-77
2024/03/21 03:25:22;;;;;;;18.80;15.30;;;;;;;2.27;100.00;100734.51;87030;271;136880;-76
2024/03/21 03:27:22;;;;;;;22.30;15.40;;;;;;;2.25;100.00;100736.93;87194;275;22629;-79
2024/03/21 03:29:23;;;;;;;19.30;14.50;;;;;;;2.24;100.00;100742.81;87045;273;136529;-75
2024/03/21 03:31:25;;;;;;;22.30;15.50;;;;;;;2.20;100.00;100746.85;87205;273;24269;-78
2024/03/21 03:35:45;;;;;;;20.10;15.30;;;;;;;2.07;100.00;100748.15;87072;273;22624;-74
2024/03/21 03:37:46;;;;;;;21.80;14.90;;;;;;;2.02;100.00;100747.51;86926;277;137940;-74
2024/03/21 03:39:46;;;;;;;21.40;15.60;;;;;;;1.97;100.00;100752.13;87108;271;25280;-74
2024/03/21 03:41:47;;;;;;;18.80;15.20;;;;;;;1.94;100.00;100753.70;86937;273;138464;-74
2024/03/21 03:43:48;;;;;;;18.40;14.60;;;;;;;1.93;100.00;100759.42;87087;271;22578;-75
2024/03/21 03:45:49;;;;;;;22.90;15.30;;;;;;;1.92;100.00;100760.70;87060;270;137522;-76
2024/03/21 03:47:50;;;;;;;15.00;13.40;;;;;;;1.93;100.00;100758.89;87063;276;24466;-75
2024/03/21 03:49:50;;;;;;;25.70;16.10;;;;;;;1.95;100.00;100758.27;86922;268;137254;-75
2024/03/21 03:51:51;;;;;;;17.60;14.40;;;;;;;1.94;100.00;100761.83;87044;271;25199;-74
2024/03/21 03:53:52;;;;;;;22.10;16.40;;;;;;;1.94;100.00;100763.91;86938;279;137009;-76
2024/03/21 03:55:53;;;;;;;16.90;13.30;;;;;;;1.95;100.00;100761.20;87138;268;24001;-74
2024/03/21 03:57:54;;;;;;;20.50;15.00;;;;;;;1.91;100.00;100767.64;86966;272;137892;-74
2024/03/21 03:59:55;;;;;;;22.00;15.10;;;;;;;1.87;100.00;100768.32;87054;279;22568;-74
2024/03/21 04:01:56;;;;;;;21.70;15.40;;;;;;;1.88;100.00;100769.66;86934;266;136464;-74
2024/03/21 04:03:57;;;;;;;22.30;16.30;;;;;;;1.89;100.00;100769.77;87173;274;22571;-72
2024/03/21 04:06:00;;;;;;;22.70;15.90;;;;;;;1.93;100.00;100770.85;87055;274;136588;-75
2024/03/21 04:08:01;;;;;;;19.70;16.90;;;;;;;1.94;100.00;100772.16;87332;279;25227;-74
2024/03/21 04:10:07;;;;;;;24.90;18.60;;;;;;;1.92;100.00;100772.81;87025;280;22577;-74
2024/03/21 04:12:07;;;;;;;25.30;18.80;;;;;;;1.88;100.00;100775.08;86989;266;137253;-75
2024/03/21 04:14:08;;;;;;;27.20;18.90;;;;;;;1.89;100.00;100775.04;87132;278;22589;-75
2024/03/21 04:16:16;;;;;;;26.30;18.70;;;;;;;1.87;100.00;100776.73;86934;272;138455;-74
2024/03/21 04:18:17;;;;;;;24.70;17.90;;;;;;;1.89;100.00;100779.77;87374;273;27347;-74
2024/03/21 04:20:18;;;;;;;19.10;15.50;;;;;;;1.92;100.00;100777.79;87021;269;138681;-75
2024/03/21 04:22:19;;;;;;;18.70;15.50;;;;;;;1.90;100.00;100778.42;87233;278;24001;-74
2024/03/21 04:24:19;;;;;;;20.10;16.00;;;;;;;1.90;100.00;100779.15;86974;268;137464;-74
2024/03/21 04:26:20;;;;;;;20.80;15.90;;;;;;;1.87;100.00;100781.31;87097;279;24029;-73
2024/03/21 04:28:21;;;;;;;24.50;15.60;;;;;;;1.87;100.00;100784.29;87005;276;136855;-74
2024/03/21 04:30:21;;;;;;;25.70;16.70;;;;;;;1.88;100.00;100782.45;87068;271;25083;-76
2024/03/21 04:32:22;;;;;;;24.00;14.50;;;;;;;1.88;100.00;100784.71;87103;274;138442;-73
2024/03/21 04:34:23;;;;;;;16.20;13.50;;;;;;;1.89;100.00;100787.13;87091;279;22572;-72
2024/03/21 04:36:23;;;;;;;18.30;14.90;;;;;;;1.87;100.00;100783.02;86933;275;137303;-75
2024/03/21 04:38:24;;;;;;;18.50;13.40;;;;;;;1.84;100.00;100784.34;87096;271;22577;-73
2024/03/21 04:40:25;;;;;;;17.50;14.60;;;;;;;1.81;100.00;100785.63;87002;268;136734;-73
2024/03/21 04:42:25;;;;;;;17.60;14.60;;;;;;;1.83;100.00;100789.00;87005;277;22571;-75
2024/03/21 04:44:26;;;;;;;19.90;15.90;;;;;;;1.86;100.00;100790.02;86891;271;138728;-74
2024/03/21 04:46:27;;;;;;;21.70;15.00;;;;;;;1.86;100.00;100789.09;87211;274;23871;-74
2024/03/21 04:48:28;;;;;;;20.40;15.30;;;;;;;1.90;100.00;100796.16;87073;280;137115;-74
2024/03/21 04:50:28;;;;;;;25.30;14.60;;;;;;;1.95;100.00;100791.04;87316;270;22586;-75
2024/03/21 04:52:29;;;;;;;20.60;15.20;;;;;;;2.02;100.00;100792.03;87038;272;137699;-74
2024/03/21 04:54:30;;;;;;;24.00;17.00;;;;;;;2.06;100.00;100796.34;87175;271;25233;-73
2024/03/21 04:57:33;;;;;;;21.20;16.10;;;;;;;1.98;100.00;100797.79;85601;294;602579;-72
2024/03/21 04:59:33;;;;;;;24.80;15.90;;;;;;;2.09;100.00;100800.27;86230;292;22587;-74
2024/03/21 05:01:37;;;;;;;28.30;16.00;;;;;;;2.33;100.00;100798.83;85905;288;136549;-74
2024/03/21 05:03:37;;;;;;;20.30;16.40;;;;;;;2.68;100.00;100795.52;86062;292;22599;-73
2024/03/21 05:05:38;;;;;;;18.20;16.30;;;;;;;2.95;100.00;100799.41;86530;285;136214;-73
2024/03/21 05:07:39;;;;;;;24.10;17.40;;;;;;;3.23;100.00;100799.40;86526;282;24976;-73
2024/03/21 05:09:40;;;;;;;19.50;15.80;;;;;;;3.50;100.00;100799.58;86471;278;136406;-75
2024/03/21 05:11:41;;;;;;;27.00;18.60;;;;;;;3.66;100.00;100798.35;86289;272;844754;-73
2024/03/21 05:13:46;;;;;;;24.90;17.90;;;;;;;3.76;100.00;100803.36;86475;284;137185;-74
2024/03/21 05:15:50;;;;;;;18.80;14.70;;;;;;;3.81;100.00;100803.22;86886;272;25297;-75
2024/03/21 05:17:51;;;;;;;20.10;18.10;;;;;;;3.91;100.00;100805.34;86456;281;136363;-75
2024/03/21 05:19:52;;;;;;;24.10;18.30;;;;;;;4.20;100.00;100801.61;86593;281;22641;-76
2024/03/21 05:21:53;;;;;;;23.60;18.30;;;;;;;4.57;100.00;100798.67;86652;275;136402;-77
2024/03/21 05:23:53;;;;;;;18.60;15.50;;;;;;;4.82;100.00;100803.08;86735;275;22566;-74
2024/03/21 05:25:54;;;;;;;17.50;15.40;;;;;;;4.90;100.00;100804.45;86333;285;136656;-75
2024/03/21 05:27:55;;;;;;;20.80;14.80;;;;;;;4.87;100.00;100806.55;87010;269;22562;-75
2024/03/21 05:29:56;;;;;;;17.20;14.40;;;;;;;4.71;100.00;100810.11;86821;273;139040;-74
2024/03/21 05:31:56;;;;;;;19.90;15.50;;;;;;;4.53;100.00;100806.75;86875;277;22628;-76
2024/03/21 05:33:58;;;;;;;19.50;14.80;;;;;;;4.41;100.00;100811.85;86865;273;136509;-74
2024/03/21 05:35:59;;;;;;;21.90;15.10;;;;;;;4.24;100.00;100812.48;86821;281;26338;-76
2024/03/21 05:38:00;;;;;;;24.80;14.70;;;;;;;4.12;100.00;100817.27;88277;268;136901;-75
2024/03/21 05:40:00;;;;;;;18.00;13.40;;;;;;;4.02;100.00;100815.66;86862;274;26185;-75
2024/03/21 05:42:01;;;;;;;16.50;13.10;;;;;;;3.95;100.00;100814.98;86596;279;136535;-76
2024/03/21 05:44:02;;;;;;;18.80;13.50;;;;;;;3.89;100.00;100817.84;86760;275;25225;-75
2024/03/21 05:46:04;;;;;;;19.10;12.70;;;;;;;3.77;100.00;100817.81;86897;268;23997;-76
2024/03/21 05:48:05;;;;;;;19.20;15.20;;;;;;;3.70;100.00;100821.20;87195;276;137574;-75
2024/03/21 05:50:07;;;;;;;16.10;13.90;;;;;;;3.72;100.00;100821.08;86647;281;22558;-78
2024/03/21 05:52:07;;;;;;;19.70;13.60;;;;;;;3.75;100.00;100818.90;86554;269;136897;-77
2024/03/21 05:54:09;;;;;;;18.90;14.80;;;;;;;3.75;100.00;100821.88;86622;274;24174;-77
2024/03/21 05:56:10;;;;;;;19.20;14.40;;;;;;;3.75;100.00;100824.88;86697;273;137021;-75
2024/03/21 05:58:11;;;;;;;18.40;13.60;;;;;;;3.71;100.00;100824.47;86838;276;22635;-75
2024/03/21 06:00:17;;;;;;;15.60;12.90;;;;;;;3.69;100.00;100823.91;86703;266;137060;-75
2024/03/21 06:02:18;;;;;;;20.20;15.10;;;;;;;3.70;100.00;100824.55;89780;278;22340;-78
2024/03/21 06:04:18;;;;;;;19.80;15.50;;;;;;;3.70;100.00;100825.27;89365;278;138481;-77
2024/03/21 06:06:19;;;;;;;23.70;17.20;;;;;;;3.68;100.00;100824.52;86922;278;24081;-75
2024/03/21 06:08:20;;;;;;;20.50;16.60;;;;;;;3.69;100.00;100827.48;87000;274;136716;-80
2024/03/21 06:10:20;;;;;;;19.60;15.40;;;;;;;3.72;100.00;100828.08;87056;269;24875;-76
2024/03/21 06:12:21;;;;;;;22.70;15.90;;;;;;;3.73;100.00;100829.58;87143;269;136717;-74
2024/03/21 06:14:22;;;;;;;23.80;17.00;;;;;;;3.75;100.00;100833.50;87082;276;22575;-77
2024/03/21 06:16:23;;;;;;;20.90;16.80;;;;;;;3.76;100.00;100833.51;87216;282;136473;-78
2024/03/21 06:18:24;;;;;;;19.90;16.30;;;;;;;3.81;100.00;100831.02;87949;274;22831;-77
2024/03/21 06:20:25;;;;;;;20.90;16.40;;;;;;;3.94;100.00;100832.72;89175;277;136409;-77
2024/03/21 06:22:25;;;;;;;21.10;16.60;;;;;;;4.09;100.00;100832.58;89286;270;22558;-78
2024/03/21 06:24:26;;;;;;;23.20;17.40;;;;;;;4.23;100.00;100832.46;89126;266;136746;-72
2024/03/21 06:26:27;;;;;;;20.30;17.20;;;;;;;4.35;100.00;100832.10;89105;279;22593;-77
2024/03/21 06:28:27;;;;;;;23.40;17.10;;;;;;;4.54;100.00;100836.58;88141;278;136733;-79
2024/03/21 06:30:28;;;;;;;22.60;17.60;;;;;;;4.79;100.00;100832.90;88234;281;23433;-80
2024/03/21 06:32:29;;;;;;;21.50;17.40;;;;;;;5.09;100.00;100841.13;88034;270;137467;-80
2024/03/21 06:34:29;;;;;;;21.10;16.20;;;;;;;5.32;100.00;100842.91;88038;269;24161;-81
2024/03/21 06:36:30;;;;;;;22.80;17.10;;;;;;;5.50;100.00;100843.61;87552;270;136593;-81
2024/03/21 06:38:31;;;;;;;24.60;19.10;;;;;;;5.78;100.00;100841.14;87511;274;22696;-81
2024/03/21 06:40:33;;;;;;;25.90;18.50;;;;;;;6.23;100.00;100838.59;87448;281;136471;-80
2024/03/21 06:42:33;;;;;;;19.40;17.40;;;;;;;6.78;100.00;100840.58;87530;269;22549;-79
2024/03/21 06:44:34;;;;;;;21.80;17.80;;;;;;;7.23;100.00;100842.81;87278;278;136466;-80
2024/03/21 06:46:38;;;;;;;21.20;18.90;;;;;;;7.47;100.00;100844.12;87088;269;22578;-79
2024/03/21 06:48:39;;;;;;;20.20;16.50;;;;;;;7.56;100.00;100842.85;87693;270;137050;-79
2024/03/21 06:50:39;;;;;;;21.40;15.60;;;;;;;7.50;100.00;100841.16;87414;274;24135;-80
2024/03/21 06:52:44;;;;;;;15.10;13.50;;;;;;;7.40;100.00;100847.31;87527;266;137922;-80
2024/03/21 06:54:45;;;;;;;21.50;15.40;;;;;;;7.21;100.00;100843.82;87663;271;25485;-81
2024/03/21 06:56:47;;;;;;;14.60;13.10;;;;;;;7.05;100.00;100846.88;87516;270;136607;-78
2024/03/21 06:58:49;;;;;;;17.00;13.10;;;;;;;6.92;100.00;100846.21;87573;269;24141;-78
2024/03/21 07:00:52;;;;;;;15.90;13.00;;;;;;;6.76;100.00;100849.73;87467;272;137265;-79
2024/03/21 07:02:55;;;;;;;18.80;15.80;;;;;;;6.51;100.00;100848.48;87855;274;22554;-82
2024/03/21 07:04:55;;;;;;;16.80;14.00;;;;;;;6.34;100.00;100847.15;87443;281;138191;-79
2024/03/21 07:06:56;;;;;;;18.10;15.00;;;;;;;6.30;100.00;100844.38;87462;280;24010;-80
2024/03/21 07:08:57;;;;;;;20.20;16.50;;;;;;;6.27;100.00;100845.14;87378;274;136735;-78
2024/03/21 07:10:57;;;;;;;19.30;13.50;;;;;;;6.20;100.00;100846.49;87572;274;22558;-80
2024/03/21 07:12:58;;;;;;;15.70;14.10;;;;;;;6.11;100.00;100844.79;87465;266;136941;-80
2024/03/21 07:14:59;;;;;;;19.10;14.60;;;;;;;6.07;100.00;100845.73;87584;271;25251;-80
2024/03/21 07:17:00;;;;;;;21.30;15.60;;;;;;;6.04;100.00;100845.73;87476;270;137785;-79
2024/03/21 07:19:01;;;;;;;16.90;14.90;;;;;;;6.03;100.00;100847.94;87853;271;22551;-79
2024/03/21 07:21:02;;;;;;;18.70;15.20;;;;;;;6.15;100.00;100846.16;87846;271;137818;-80
2024/03/21 07:23:03;;;;;;;17.60;14.70;;;;;;;6.24;100.00;100848.95;87783;270;22642;-78
2024/03/21 07:25:06;;;;;;;21.60;16.20;;;;;;;6.29;100.00;100845.69;87603;271;136286;-80
2024/03/21 07:27:07;;;;;;;21.20;16.50;;;;;;;6.37;100.00;100852.85;87704;280;22664;-80
2024/03/21 07:29:08;;;;;;;22.00;16.50;;;;;;;6.38;100.00;100849.70;87686;279;137077;-81
2024/03/21 07:31:09;;;;;;;22.20;15.90;;;;;;;6.33;100.00;100851.48;87626;271;23258;-80
2024/03/21 07:33:09;;;;;;;25.70;16.00;;;;;;;6.31;100.00;100848.33;87649;275;137890;-81
2024/03/21 07:35:10;;;;;;;22.90;16.10;;;;;;;6.29;100.00;100853.05;87686;267;25143;-80
2024/03/21 07:37:12;;;;;;;19.90;15.20;;;;;;;6.27;100.00;100852.05;87486;275;137846;-83
2024/03/21 07:39:13;;;;;;;23.60;18.40;;;;;;;6.28;100.00;100854.98;87672;279;23459;-82
2024/03/21 07:41:14;;;;;;;23.90;18.30;;;;;;;6.29;100.00;100853.21;87633;270;137104;-81
2024/03/21 07:43:14;;;;;;;22.40;17.70;;;;;;;6.34;100.00;100856.14;87706;271;22549;-80
2024/03/21 07:45:15;;;;;;;18.60;15.60;;;;;;;6.43;100.00;100855.59;87535;270;137032;-84
2024/03/21 07:47:16;;;;;;;25.00;16.20;;;;;;;6.53;100.00;100856.59;87653;274;24084;-79
2024/03/21 07:49:17;;;;;;;20.30;17.00;;;;;;;6.56;100.00;100855.42;87525;274;137274;-81
2024/03/21 07:51:18;;;;;;;28.20;18.20;;;;;;;6.60;100.00;100853.25;87560;272;23451;-80
2024/03/21 07:53:19;;;;;;;17.30;15.40;;;;;;;6.71;100.00;100852.60;87712;270;137836;-80
2024/03/21 07:55:19;;;;;;;17.80;15.40;;;;;;;6.80;100.00;100856.40;88128;278;24167;-83
2024/03/21 07:57:20;;;;;;;17.60;14.80;;;;;;;6.85;100.00;100859.83;87420;278;139106;-80
2024/03/21 07:59:22;;;;;;;17.20;15.20;;;;;;;6.88;100.00;100857.46;87489;272;25186;-81
2024/03/21 08:01:25;;;;;;;19.60;14.80;;;;;;;6.83;100.00;100858.55;87531;266;138637;-81
2024/03/21 08:03:25;;;;;;;18.80;15.50;;;;;;;6.81;100.00;100858.78;87436;273;22576;-81
2024/03/21 08:05:27;;;;;;;19.80;17.80;;;;;;;6.84;100.00;100854.95;87501;271;136792;-82
2024/03/21 08:07:27;;;;;;;17.90;16.10;;;;;;;6.94;100.00;100855.44;87706;270;22524;-83
2024/03/21 08:09:28;;;;;;;21.40;16.70;;;;;;;7.11;100.00;100852.69;87471;271;141131;-83
2024/03/21 08:11:29;;;;;;;17.10;15.20;;;;;;;7.24;100.00;100855.42;87476;273;22657;-83
2024/03/21 08:13:30;;;;;;;22.30;17.40;;;;;;;7.37;100.00;100857.80;87443;264;137223;-81
2024/03/21 08:15:30;;;;;;;17.50;15.70;;;;;;;7.47;100.00;100860.59;87590;264;23264;-80
2024/03/21 08:17:31;;;;;;;17.50;15.70;;;;;;;7.52;100.00;100862.71;87698;277;136859;-81
2024/03/21 08:19:33;;;;;;;20.10;16.50;;;;;;;7.50;100.00;100859.50;87597;279;24011;-79
2024/03/21 08:21:33;;;;;;;20.10;18.00;;;;;;;7.43;100.00;100860.65;87289;278;136865;-80
2024/03/21 08:23:34;;;;;;;24.80;17.50;;;;;;;7.45;100.00;100859.36;87421;274;22602;-78
2024/03/21 08:25:35;;;;;;;21.60;16.70;;;;;;;7.55;100.00;100854.55;87656;276;137179;-78
2024/03/21 08:27:37;;;;;;;23.70;17.50;;;;;;;7.66;100.00;100861.43;87434;276;22541;-83
2024/03/21 08:29:38;;;;;;;21.80;17.60;;;;;;;7.75;100.00;100860.18;87379;280;138161;-83
2024/03/21 08:31:38;;;;;;;19.30;14.60;;;;;;;7.86;100.00;100860.87;87849;270;22593;-84
2024/03/21 08:33:39;;;;;;;19.30;15.80;;;;;;;7.99;100.00;100864.42;87447;272;136804;-82
2024/03/21 08:35:40;;;;;;;19.50;16.20;;;;;;;8.08;100.00;100863.91;87441;275;22568;-81
2024/03/21 08:37:40;;;;;;;17.90;14.10;;;;;;;8.08;100.00;100860.34;87400;271;138496;-82
2024/03/21 08:39:41;;;;;;;25.20;16.50;;;;;;;8.12;100.00;100859.98;87608;270;24811;-86
2024/03/21 08:41:42;;;;;;;21.00;16.60;;;;;;;8.16;100.00;100861.67;87519;278;138239;-83
2024/03/21 08:43:43;;;;;;;19.80;15.50;;;;;;;8.22;100.00;100857.32;87572;269;22568;-78
2024/03/21 08:45:45;;;;;;;18.90;16.10;;;;;;;8.31;100.00;100859.88;87091;271;136948;-74
2024/03/21 08:47:46;;;;;;;15.90;14.20;;;;;;;8.42;100.00;100861.81;87330;278;25394;-74
2024/03/21 08:49:47;;;;;;;16.50;14.80;;;;;;;8.47;100.00;100866.60;87193;273;137607;-76
2024/03/21 08:51:47;;;;;;;15.10;13.50;;;;;;;8.50;100.00;100870.19;87319;277;22558;-77
2024/03/21 08:53:48;;;;;;;16.50;14.60;;;;;;;8.52;100.00;100870.70;87211;270;136836;-73
2024/03/21 08:55:49;;;;;;;17.80;15.70;;;;;;;8.57;100.00;100869.81;87058;279;24151;-67
2024/03/21 08:57:49;;;;;;;19.90;15.80;;;;;;;8.69;100.00;100864.66;87222;273;139272;-74
2024/03/21 08:59:50;;;;;;;19.00;15.40;;;;;;;8.84;100.00;100861.83;87339;270;24011;-73
2024/03/21 09:01:51;;;;;;;19.70;16.30;;;;;;;8.97;100.00;100863.54;87204;274;137512;-72
2024/03/21 09:03:51;;;;;;;15.90;14.00;;;;;;;9.07;100.00;100864.30;87364;270;22571;-74
2024/03/21 09:05:52;;;;;;;20.80;15.80;;;;;;;9.09;100.00;100860.14;87212;279;137420;-74
2024/03/21 09:07:55;;;;;;;20.10;15.70;;;;;;;9.14;100.00;100856.59;87283;269;26274;-73
2024/03/21 09:09:56;;;;;;;19.30;14.20;;;;;;;9.20;100.00;100854.70;87130;274;137495;-70
2024/03/21 09:11:57;;;;;;;15.10;12.60;;;;;;;9.25;100.00;100856.89;87111;271;24173;-72
2024/03/21 09:13:58;;;;;;;17.30;14.50;;;;;;;9.26;100.00;100855.48;86990;271;137462;-73
2024/03/21 09:15:58;;;;;;;17.00;12.50;;;;;;;9.27;100.00;100859.98;87184;270;22585;-80
2024/03/21 09:18:00;;;;;;;14.00;11.90;;;;;;;9.31;100.00;100856.36;87239;270;137428;-69